sensor_id;sensor_type;location;lat;lon;timestamp;P1;durP1;ratioP1;P2;durP2;ratioP2
20283;SDS011;10301;50.832;4.080;2023-07-31T00:00:52;16.13;;;4.95;;
20283;SDS011;10301;50.832;4.080;2023-07-31T00:03:18;15.73;;;4.78;;
20283;SDS011;10301;50.832;4.080;2023-07-31T00:05:43;17.10;;;4.88;;
20283;SDS011;10301;50.832;4.080;2023-07-31T00:08:09;16.45;;;5.07;;
20283;SDS011;10301;50.832;4.080;2023-07-31T00:10:36;20.35;;;5.25;;
20283;SDS011;10301;50.832;4.080;2023-07-31T00:13:02;18.08;;;5.60;;
20283;SDS011;10301;50.832;4.080;2023-07-31T00:15:27;19.35;;;4.97;;
20283;SDS011;10301;50.832;4.080;2023-07-31T00:17:53;19.13;;;5.07;;
20283;SDS011;10301;50.832;4.080;2023-07-31T00:20:19;20.00;;;5.15;;
20283;SDS011;10301;50.832;4.080;2023-07-31T00:22:44;16.08;;;4.88;;
20283;SDS011;10301;50.832;4.080;2023-07-31T00:25:10;14.50;;;5.10;;
20283;SDS011;10301;50.832;4.080;2023-07-31T00:27:36;19.50;;;5.47;;
20283;SDS011;10301;50.832;4.080;2023-07-31T00:30:01;18.25;;;5.15;;
20283;SDS011;10301;50.832;4.080;2023-07-31T00:32:27;18.20;;;5.95;;
20283;SDS011;10301;50.832;4.080;2023-07-31T00:34:53;20.83;;;5.25;;
20283;SDS011;10301;50.832;4.080;2023-07-31T00:37:19;19.83;;;5.07;;
20283;SDS011;10301;50.832;4.080;2023-07-31T00:39:44;15.15;;;5.70;;
20283;SDS011;10301;50.832;4.080;2023-07-31T00:42:10;15.57;;;5.18;;
20283;SDS011;10301;50.832;4.080;2023-07-31T00:44:36;16.63;;;4.80;;
20283;SDS011;10301;50.832;4.080;2023-07-31T00:47:01;18.95;;;5.43;;
20283;SDS011;10301;50.832;4.080;2023-07-31T00:49:27;18.80;;;5.15;;
20283;SDS011;10301;50.832;4.080;2023-07-31T00:51:53;18.05;;;5.45;;
20283;SDS011;10301;50.832;4.080;2023-07-31T00:54:19;14.88;;;5.53;;
20283;SDS011;10301;50.832;4.080;2023-07-31T00:56:45;13.15;;;5.00;;
20283;SDS011;10301;50.832;4.080;2023-07-31T00:59:13;15.02;;;5.30;;
20283;SDS011;10301;50.832;4.080;2023-07-31T01:01:39;20.77;;;5.53;;
20283;SDS011;10301;50.832;4.080;2023-07-31T01:04:05;17.38;;;5.45;;
20283;SDS011;10301;50.832;4.080;2023-07-31T01:09:03;18.60;;;5.38;;
20283;SDS011;10301;50.832;4.080;2023-07-31T01:12:02;13.65;;;5.40;;
20283;SDS011;10301;50.832;4.080;2023-07-31T01:14:29;15.40;;;5.15;;
20283;SDS011;10301;50.832;4.080;2023-07-31T01:16:55;19.38;;;5.03;;
20283;SDS011;10301;50.832;4.080;2023-07-31T01:19:24;14.75;;;5.32;;
20283;SDS011;10301;50.832;4.080;2023-07-31T01:25:00;13.93;;;4.70;;
20283;SDS011;10301;50.832;4.080;2023-07-31T01:27:43;16.20;;;5.40;;
20283;SDS011;10301;50.832;4.080;2023-07-31T01:30:16;16.83;;;5.35;;
20283;SDS011;10301;50.832;4.080;2023-07-31T01:32:44;16.58;;;5.65;;
20283;SDS011;10301;50.832;4.080;2023-07-31T01:35:13;13.25;;;4.53;;
20283;SDS011;10301;50.832;4.080;2023-07-31T01:37:39;16.83;;;5.28;;
20283;SDS011;10301;50.832;4.080;2023-07-31T01:40:06;15.90;;;4.68;;
20283;SDS011;10301;50.832;4.080;2023-07-31T01:42:32;16.55;;;5.43;;
20283;SDS011;10301;50.832;4.080;2023-07-31T01:44:58;15.07;;;5.35;;
20283;SDS011;10301;50.832;4.080;2023-07-31T01:47:24;17.88;;;5.38;;
20283;SDS011;10301;50.832;4.080;2023-07-31T01:49:49;13.43;;;5.18;;
20283;SDS011;10301;50.832;4.080;2023-07-31T01:52:15;21.83;;;5.47;;
20283;SDS011;10301;50.832;4.080;2023-07-31T01:54:41;13.10;;;4.97;;
20283;SDS011;10301;50.832;4.080;2023-07-31T01:57:06;12.70;;;4.68;;
20283;SDS011;10301;50.832;4.080;2023-07-31T01:59:32;15.07;;;5.60;;
20283;SDS011;10301;50.832;4.080;2023-07-31T02:01:58;15.90;;;6.18;;
20283;SDS011;10301;50.832;4.080;2023-07-31T02:04:23;15.90;;;5.32;;
20283;SDS011;10301;50.832;4.080;2023-07-31T02:06:49;14.20;;;5.68;;
20283;SDS011;10301;50.832;4.080;2023-07-31T02:09:14;17.45;;;5.22;;
20283;SDS011;10301;50.832;4.080;2023-07-31T02:11:40;16.77;;;5.68;;
20283;SDS011;10301;50.832;4.080;2023-07-31T02:14:06;14.88;;;6.63;;
20283;SDS011;10301;50.832;4.080;2023-07-31T02:16:31;17.20;;;6.13;;
20283;SDS011;10301;50.832;4.080;2023-07-31T02:18:57;18.13;;;5.90;;
20283;SDS011;10301;50.832;4.080;2023-07-31T02:21:23;15.63;;;5.95;;
20283;SDS011;10301;50.832;4.080;2023-07-31T02:23:48;13.77;;;6.18;;
20283;SDS011;10301;50.832;4.080;2023-07-31T02:26:14;16.05;;;7.00;;
20283;SDS011;10301;50.832;4.080;2023-07-31T02:28:39;14.25;;;6.07;;
20283;SDS011;10301;50.832;4.080;2023-07-31T02:31:08;13.07;;;6.75;;
20283;SDS011;10301;50.832;4.080;2023-07-31T02:33:33;14.73;;;6.63;;
20283;SDS011;10301;50.832;4.080;2023-07-31T02:35:59;15.65;;;6.05;;
20283;SDS011;10301;50.832;4.080;2023-07-31T02:38:24;14.07;;;5.82;;
20283;SDS011;10301;50.832;4.080;2023-07-31T02:40:50;12.13;;;6.05;;
20283;SDS011;10301;50.832;4.080;2023-07-31T02:43:16;15.32;;;6.50;;
20283;SDS011;10301;50.832;4.080;2023-07-31T02:45:41;14.63;;;5.78;;
20283;SDS011;10301;50.832;4.080;2023-07-31T02:48:07;12.98;;;6.88;;
20283;SDS011;10301;50.832;4.080;2023-07-31T02:50:32;13.48;;;5.60;;
20283;SDS011;10301;50.832;4.080;2023-07-31T02:52:58;11.95;;;5.82;;
20283;SDS011;10301;50.832;4.080;2023-07-31T02:55:24;13.10;;;6.40;;
20283;SDS011;10301;50.832;4.080;2023-07-31T02:57:49;13.80;;;6.63;;
20283;SDS011;10301;50.832;4.080;2023-07-31T03:00:17;14.90;;;5.97;;
20283;SDS011;10301;50.832;4.080;2023-07-31T03:02:42;11.75;;;6.05;;
20283;SDS011;10301;50.832;4.080;2023-07-31T03:05:08;13.02;;;6.13;;
20283;SDS011;10301;50.832;4.080;2023-07-31T03:07:34;11.07;;;5.60;;
20283;SDS011;10301;50.832;4.080;2023-07-31T03:09:59;10.80;;;5.63;;
20283;SDS011;10301;50.832;4.080;2023-07-31T03:12:26;14.52;;;5.53;;
20283;SDS011;10301;50.832;4.080;2023-07-31T03:14:52;12.07;;;5.57;;
20283;SDS011;10301;50.832;4.080;2023-07-31T03:17:17;15.13;;;6.15;;
20283;SDS011;10301;50.832;4.080;2023-07-31T03:19:43;13.65;;;6.40;;
20283;SDS011;10301;50.832;4.080;2023-07-31T03:22:09;12.88;;;6.18;;
20283;SDS011;10301;50.832;4.080;2023-07-31T03:24:34;16.33;;;6.55;;
20283;SDS011;10301;50.832;4.080;2023-07-31T03:27:00;10.98;;;5.35;;
20283;SDS011;10301;50.832;4.080;2023-07-31T03:29:25;14.02;;;6.40;;
20283;SDS011;10301;50.832;4.080;2023-07-31T03:31:51;15.57;;;6.30;;
20283;SDS011;10301;50.832;4.080;2023-07-31T03:34:17;12.93;;;6.18;;
20283;SDS011;10301;50.832;4.080;2023-07-31T03:36:42;14.98;;;6.40;;
20283;SDS011;10301;50.832;4.080;2023-07-31T03:39:09;13.68;;;5.93;;
20283;SDS011;10301;50.832;4.080;2023-07-31T03:41:34;12.85;;;6.00;;
20283;SDS011;10301;50.832;4.080;2023-07-31T03:44:00;11.32;;;5.75;;
20283;SDS011;10301;50.832;4.080;2023-07-31T03:46:26;16.38;;;6.47;;
20283;SDS011;10301;50.832;4.080;2023-07-31T03:48:52;12.23;;;6.18;;
20283;SDS011;10301;50.832;4.080;2023-07-31T03:51:17;12.27;;;5.95;;
20283;SDS011;10301;50.832;4.080;2023-07-31T03:53:43;15.25;;;6.47;;
20283;SDS011;10301;50.832;4.080;2023-07-31T03:56:09;11.90;;;5.75;;
20283;SDS011;10301;50.832;4.080;2023-07-31T03:58:35;11.65;;;5.53;;
20283;SDS011;10301;50.832;4.080;2023-07-31T04:01:02;11.85;;;5.85;;
20283;SDS011;10301;50.832;4.080;2023-07-31T04:03:28;13.50;;;5.93;;
20283;SDS011;10301;50.832;4.080;2023-07-31T04:05:54;16.13;;;6.00;;
20283;SDS011;10301;50.832;4.080;2023-07-31T04:08:21;14.18;;;6.50;;
20283;SDS011;10301;50.832;4.080;2023-07-31T04:10:49;16.00;;;6.38;;
20283;SDS011;10301;50.832;4.080;2023-07-31T04:13:15;12.27;;;5.95;;
20283;SDS011;10301;50.832;4.080;2023-07-31T04:15:41;12.27;;;6.28;;
20283;SDS011;10301;50.832;4.080;2023-07-31T04:18:07;10.82;;;5.88;;
20283;SDS011;10301;50.832;4.080;2023-07-31T04:20:32;11.68;;;6.07;;
20283;SDS011;10301;50.832;4.080;2023-07-31T04:22:58;12.77;;;5.53;;
20283;SDS011;10301;50.832;4.080;2023-07-31T04:25:23;10.68;;;6.07;;
20283;SDS011;10301;50.832;4.080;2023-07-31T04:27:49;11.57;;;5.97;;
20283;SDS011;10301;50.832;4.080;2023-07-31T04:30:15;11.32;;;5.85;;
20283;SDS011;10301;50.832;4.080;2023-07-31T04:32:40;15.43;;;6.53;;
20283;SDS011;10301;50.832;4.080;2023-07-31T04:35:06;12.63;;;5.57;;
20283;SDS011;10301;50.832;4.080;2023-07-31T04:37:32;10.20;;;5.65;;
20283;SDS011;10301;50.832;4.080;2023-07-31T04:39:58;11.05;;;5.60;;
20283;SDS011;10301;50.832;4.080;2023-07-31T04:42:23;11.50;;;5.22;;
20283;SDS011;10301;50.832;4.080;2023-07-31T04:44:49;11.10;;;5.30;;
20283;SDS011;10301;50.832;4.080;2023-07-31T04:47:14;16.33;;;5.78;;
20283;SDS011;10301;50.832;4.080;2023-07-31T04:49:40;14.50;;;5.03;;
20283;SDS011;10301;50.832;4.080;2023-07-31T04:52:06;12.73;;;5.00;;
20283;SDS011;10301;50.832;4.080;2023-07-31T04:54:31;9.20;;;5.25;;
20283;SDS011;10301;50.832;4.080;2023-07-31T04:56:57;11.10;;;5.38;;
20283;SDS011;10301;50.832;4.080;2023-07-31T04:59:23;13.43;;;5.10;;
20283;SDS011;10301;50.832;4.080;2023-07-31T05:01:48;10.52;;;5.35;;
20283;SDS011;10301;50.832;4.080;2023-07-31T05:04:14;12.63;;;4.72;;
20283;SDS011;10301;50.832;4.080;2023-07-31T05:06:40;10.27;;;5.05;;
20283;SDS011;10301;50.832;4.080;2023-07-31T05:09:06;12.77;;;5.20;;
20283;SDS011;10301;50.832;4.080;2023-07-31T05:11:34;14.60;;;5.05;;
20283;SDS011;10301;50.832;4.080;2023-07-31T05:14:00;15.80;;;5.60;;
20283;SDS011;10301;50.832;4.080;2023-07-31T05:16:25;11.45;;;4.57;;
20283;SDS011;10301;50.832;4.080;2023-07-31T05:18:51;12.13;;;5.63;;
20283;SDS011;10301;50.832;4.080;2023-07-31T05:21:16;16.08;;;5.43;;
20283;SDS011;10301;50.832;4.080;2023-07-31T05:23:42;10.38;;;5.25;;
20283;SDS011;10301;50.832;4.080;2023-07-31T05:26:08;14.93;;;4.80;;
20283;SDS011;10301;50.832;4.080;2023-07-31T05:28:36;10.57;;;4.85;;
20283;SDS011;10301;50.832;4.080;2023-07-31T05:31:03;12.65;;;4.63;;
20283;SDS011;10301;50.832;4.080;2023-07-31T05:33:30;12.90;;;4.90;;
20283;SDS011;10301;50.832;4.080;2023-07-31T05:35:56;13.75;;;5.10;;
20283;SDS011;10301;50.832;4.080;2023-07-31T05:38:21;11.35;;;4.85;;
20283;SDS011;10301;50.832;4.080;2023-07-31T05:40:47;8.15;;;4.25;;
20283;SDS011;10301;50.832;4.080;2023-07-31T05:43:13;10.10;;;4.63;;
20283;SDS011;10301;50.832;4.080;2023-07-31T05:45:39;10.40;;;4.72;;
20283;SDS011;10301;50.832;4.080;2023-07-31T05:48:06;9.98;;;4.80;;
20283;SDS011;10301;50.832;4.080;2023-07-31T05:50:32;11.35;;;5.18;;
20283;SDS011;10301;50.832;4.080;2023-07-31T05:52:58;14.25;;;5.55;;
20283;SDS011;10301;50.832;4.080;2023-07-31T05:55:24;13.13;;;4.53;;
20283;SDS011;10301;50.832;4.080;2023-07-31T05:57:52;11.52;;;4.50;;
20283;SDS011;10301;50.832;4.080;2023-07-31T06:00:18;11.60;;;4.82;;
20283;SDS011;10301;50.832;4.080;2023-07-31T06:02:43;11.27;;;4.60;;
20283;SDS011;10301;50.832;4.080;2023-07-31T06:05:09;12.32;;;4.90;;
20283;SDS011;10301;50.832;4.080;2023-07-31T06:07:35;13.05;;;4.38;;
20283;SDS011;10301;50.832;4.080;2023-07-31T06:10:01;8.88;;;4.57;;
20283;SDS011;10301;50.832;4.080;2023-07-31T06:12:30;12.80;;;4.65;;
20283;SDS011;10301;50.832;4.080;2023-07-31T06:14:56;10.70;;;4.43;;
20283;SDS011;10301;50.832;4.080;2023-07-31T06:17:22;9.73;;;4.75;;
20283;SDS011;10301;50.832;4.080;2023-07-31T06:19:48;11.35;;;4.40;;
20283;SDS011;10301;50.832;4.080;2023-07-31T06:22:14;12.05;;;5.18;;
20283;SDS011;10301;50.832;4.080;2023-07-31T06:24:40;13.90;;;5.32;;
20283;SDS011;10301;50.832;4.080;2023-07-31T06:27:06;9.90;;;4.45;;
20283;SDS011;10301;50.832;4.080;2023-07-31T06:29:31;13.55;;;4.22;;
20283;SDS011;10301;50.832;4.080;2023-07-31T06:31:57;10.45;;;4.65;;
20283;SDS011;10301;50.832;4.080;2023-07-31T06:34:23;10.48;;;4.28;;
20283;SDS011;10301;50.832;4.080;2023-07-31T06:36:49;13.20;;;4.50;;
20283;SDS011;10301;50.832;4.080;2023-07-31T06:39:14;10.27;;;4.25;;
20283;SDS011;10301;50.832;4.080;2023-07-31T06:41:40;13.00;;;4.25;;
20283;SDS011;10301;50.832;4.080;2023-07-31T06:44:06;7.82;;;3.78;;
20283;SDS011;10301;50.832;4.080;2023-07-31T06:46:32;10.82;;;4.18;;
20283;SDS011;10301;50.832;4.080;2023-07-31T06:48:57;10.68;;;4.30;;
20283;SDS011;10301;50.832;4.080;2023-07-31T06:51:23;12.85;;;4.10;;
20283;SDS011;10301;50.832;4.080;2023-07-31T06:53:49;11.32;;;4.82;;
20283;SDS011;10301;50.832;4.080;2023-07-31T06:56:14;9.95;;;4.18;;
20283;SDS011;10301;50.832;4.080;2023-07-31T06:58:40;12.82;;;4.03;;
20283;SDS011;10301;50.832;4.080;2023-07-31T07:01:05;9.50;;;4.00;;
20283;SDS011;10301;50.832;4.080;2023-07-31T07:03:31;6.50;;;3.80;;
20283;SDS011;10301;50.832;4.080;2023-07-31T07:05:57;10.73;;;4.50;;
20283;SDS011;10301;50.832;4.080;2023-07-31T07:08:23;11.50;;;4.00;;
20283;SDS011;10301;50.832;4.080;2023-07-31T07:10:49;9.23;;;4.00;;
20283;SDS011;10301;50.832;4.080;2023-07-31T07:13:15;9.73;;;3.83;;
20283;SDS011;10301;50.832;4.080;2023-07-31T07:15:43;9.45;;;4.10;;
20283;SDS011;10301;50.832;4.080;2023-07-31T07:18:13;10.93;;;4.00;;
20283;SDS011;10301;50.832;4.080;2023-07-31T07:20:39;8.82;;;3.60;;
20283;SDS011;10301;50.832;4.080;2023-07-31T07:23:04;13.48;;;3.95;;
20283;SDS011;10301;50.832;4.080;2023-07-31T07:25:30;8.90;;;3.95;;
20283;SDS011;10301;50.832;4.080;2023-07-31T07:27:56;9.57;;;4.45;;
20283;SDS011;10301;50.832;4.080;2023-07-31T07:30:23;9.55;;;4.13;;
20283;SDS011;10301;50.832;4.080;2023-07-31T07:32:50;8.95;;;3.75;;
20283;SDS011;10301;50.832;4.080;2023-07-31T07:35:15;9.52;;;3.80;;
20283;SDS011;10301;50.832;4.080;2023-07-31T07:37:41;13.65;;;3.88;;
20283;SDS011;10301;50.832;4.080;2023-07-31T07:40:07;7.55;;;3.72;;
20283;SDS011;10301;50.832;4.080;2023-07-31T07:42:33;8.48;;;3.58;;
20283;SDS011;10301;50.832;4.080;2023-07-31T07:44:59;11.50;;;3.88;;
20283;SDS011;10301;50.832;4.080;2023-07-31T07:47:24;11.00;;;3.75;;
20283;SDS011;10301;50.832;4.080;2023-07-31T07:49:50;9.07;;;3.88;;
20283;SDS011;10301;50.832;4.080;2023-07-31T07:52:15;7.68;;;3.58;;
20283;SDS011;10301;50.832;4.080;2023-07-31T07:54:41;8.52;;;3.17;;
20283;SDS011;10301;50.832;4.080;2023-07-31T07:57:07;8.95;;;3.50;;
20283;SDS011;10301;50.832;4.080;2023-07-31T07:59:32;10.82;;;3.38;;
20283;SDS011;10301;50.832;4.080;2023-07-31T08:01:58;8.52;;;3.60;;
20283;SDS011;10301;50.832;4.080;2023-07-31T08:04:24;11.50;;;3.65;;
20283;SDS011;10301;50.832;4.080;2023-07-31T08:06:49;7.90;;;3.40;;
20283;SDS011;10301;50.832;4.080;2023-07-31T08:09:15;11.20;;;3.35;;
20283;SDS011;10301;50.832;4.080;2023-07-31T08:11:40;11.20;;;3.80;;
20283;SDS011;10301;50.832;4.080;2023-07-31T08:14:06;8.30;;;3.45;;
20283;SDS011;10301;50.832;4.080;2023-07-31T08:16:32;7.72;;;4.22;;
20283;SDS011;10301;50.832;4.080;2023-07-31T08:18:57;8.60;;;3.50;;
20283;SDS011;10301;50.832;4.080;2023-07-31T08:21:23;8.40;;;3.72;;
20283;SDS011;10301;50.832;4.080;2023-07-31T08:23:49;10.23;;;3.60;;
20283;SDS011;10301;50.832;4.080;2023-07-31T08:26:18;14.63;;;3.55;;
20283;SDS011;10301;50.832;4.080;2023-07-31T08:28:44;12.13;;;3.97;;
20283;SDS011;10301;50.832;4.080;2023-07-31T08:31:10;8.02;;;3.65;;
20283;SDS011;10301;50.832;4.080;2023-07-31T08:33:36;10.85;;;3.85;;
20283;SDS011;10301;50.832;4.080;2023-07-31T08:36:02;7.65;;;3.70;;
20283;SDS011;10301;50.832;4.080;2023-07-31T08:38:28;11.60;;;3.63;;
20283;SDS011;10301;50.832;4.080;2023-07-31T08:40:56;8.77;;;3.45;;
20283;SDS011;10301;50.832;4.080;2023-07-31T08:43:22;10.57;;;3.75;;
20283;SDS011;10301;50.832;4.080;2023-07-31T08:45:51;11.73;;;4.03;;
20283;SDS011;10301;50.832;4.080;2023-07-31T08:48:17;8.57;;;3.80;;
20283;SDS011;10301;50.832;4.080;2023-07-31T08:50:45;8.20;;;3.90;;
20283;SDS011;10301;50.832;4.080;2023-07-31T08:53:11;10.05;;;3.92;;
20283;SDS011;10301;50.832;4.080;2023-07-31T08:55:37;7.95;;;3.75;;
20283;SDS011;10301;50.832;4.080;2023-07-31T08:58:04;12.77;;;4.35;;
20283;SDS011;10301;50.832;4.080;2023-07-31T09:00:30;10.68;;;4.10;;
20283;SDS011;10301;50.832;4.080;2023-07-31T09:03:06;10.93;;;4.03;;
20283;SDS011;10301;50.832;4.080;2023-07-31T09:05:35;10.10;;;4.03;;
20283;SDS011;10301;50.832;4.080;2023-07-31T09:08:02;9.95;;;4.13;;
20283;SDS011;10301;50.832;4.080;2023-07-31T09:10:29;12.50;;;3.83;;
20283;SDS011;10301;50.832;4.080;2023-07-31T09:12:55;8.45;;;3.97;;
20283;SDS011;10301;50.832;4.080;2023-07-31T09:15:21;8.60;;;4.30;;
20283;SDS011;10301;50.832;4.080;2023-07-31T09:17:48;8.77;;;4.00;;
20283;SDS011;10301;50.832;4.080;2023-07-31T09:20:25;10.35;;;4.32;;
20283;SDS011;10301;50.832;4.080;2023-07-31T09:22:50;10.52;;;4.30;;
20283;SDS011;10301;50.832;4.080;2023-07-31T09:25:20;9.40;;;4.40;;
20283;SDS011;10301;50.832;4.080;2023-07-31T09:27:53;10.18;;;4.90;;
20283;SDS011;10301;50.832;4.080;2023-07-31T09:30:22;13.18;;;4.55;;
20283;SDS011;10301;50.832;4.080;2023-07-31T09:32:48;12.88;;;4.30;;
20283;SDS011;10301;50.832;4.080;2023-07-31T09:35:21;8.63;;;4.63;;
20283;SDS011;10301;50.832;4.080;2023-07-31T09:37:54;10.38;;;4.63;;
20283;SDS011;10301;50.832;4.080;2023-07-31T09:40:29;10.05;;;4.47;;
20283;SDS011;10301;50.832;4.080;2023-07-31T09:43:01;16.17;;;5.47;;
20283;SDS011;10301;50.832;4.080;2023-07-31T09:45:28;10.32;;;5.95;;
20283;SDS011;10301;50.832;4.080;2023-07-31T09:47:54;11.35;;;5.03;;
20283;SDS011;10301;50.832;4.080;2023-07-31T09:50:22;12.55;;;5.25;;
20283;SDS011;10301;50.832;4.080;2023-07-31T09:52:49;12.38;;;4.93;;
20283;SDS011;10301;50.832;4.080;2023-07-31T09:55:15;14.77;;;5.50;;
20283;SDS011;10301;50.832;4.080;2023-07-31T09:57:43;11.57;;;5.10;;
20283;SDS011;10301;50.832;4.080;2023-07-31T10:00:11;12.63;;;6.70;;
20283;SDS011;10301;50.832;4.080;2023-07-31T10:02:38;12.93;;;5.88;;
20283;SDS011;10301;50.832;4.080;2023-07-31T10:05:05;11.90;;;5.43;;
20283;SDS011;10301;50.832;4.080;2023-07-31T10:07:33;14.05;;;6.10;;
20283;SDS011;10301;50.832;4.080;2023-07-31T10:10:04;10.60;;;5.47;;
20283;SDS011;10301;50.832;4.080;2023-07-31T10:12:33;11.15;;;4.82;;
20283;SDS011;10301;50.832;4.080;2023-07-31T10:14:59;10.85;;;5.22;;
20283;SDS011;10301;50.832;4.080;2023-07-31T10:17:26;10.45;;;5.15;;
20283;SDS011;10301;50.832;4.080;2023-07-31T10:19:52;12.07;;;5.50;;
20283;SDS011;10301;50.832;4.080;2023-07-31T10:22:21;13.38;;;5.97;;
20283;SDS011;10301;50.832;4.080;2023-07-31T10:24:48;11.73;;;5.60;;
20283;SDS011;10301;50.832;4.080;2023-07-31T10:27:15;12.57;;;5.55;;
20283;SDS011;10301;50.832;4.080;2023-07-31T10:29:41;15.52;;;5.80;;
20283;SDS011;10301;50.832;4.080;2023-07-31T10:32:10;13.65;;;5.93;;
20283;SDS011;10301;50.832;4.080;2023-07-31T10:34:38;11.80;;;5.18;;
20283;SDS011;10301;50.832;4.080;2023-07-31T10:40:02;11.75;;;4.90;;
20283;SDS011;10301;50.832;4.080;2023-07-31T10:42:29;10.98;;;5.75;;
20283;SDS011;10301;50.832;4.080;2023-07-31T10:44:57;15.30;;;5.43;;
20283;SDS011;10301;50.832;4.080;2023-07-31T10:47:27;13.85;;;5.38;;
20283;SDS011;10301;50.832;4.080;2023-07-31T10:49:59;12.70;;;5.25;;
20283;SDS011;10301;50.832;4.080;2023-07-31T10:52:43;10.00;;;4.88;;
20283;SDS011;10301;50.832;4.080;2023-07-31T10:55:15;9.95;;;4.93;;
20283;SDS011;10301;50.832;4.080;2023-07-31T10:57:57;10.30;;;4.97;;
20283;SDS011;10301;50.832;4.080;2023-07-31T11:00:31;14.65;;;5.35;;
20283;SDS011;10301;50.832;4.080;2023-07-31T11:02:57;10.23;;;5.00;;
20283;SDS011;10301;50.832;4.080;2023-07-31T11:05:45;11.23;;;4.57;;
20283;SDS011;10301;50.832;4.080;2023-07-31T11:08:18;11.50;;;4.85;;
20283;SDS011;10301;50.832;4.080;2023-07-31T11:10:49;13.30;;;5.10;;
20283;SDS011;10301;50.832;4.080;2023-07-31T11:13:46;12.30;;;4.55;;
20283;SDS011;10301;50.832;4.080;2023-07-31T11:16:15;9.43;;;5.13;;
20283;SDS011;10301;50.832;4.080;2023-07-31T11:18:43;10.35;;;4.95;;
20283;SDS011;10301;50.832;4.080;2023-07-31T11:21:13;10.38;;;4.68;;
20283;SDS011;10301;50.832;4.080;2023-07-31T11:23:40;9.77;;;4.70;;
20283;SDS011;10301;50.832;4.080;2023-07-31T11:26:07;10.82;;;5.75;;
20283;SDS011;10301;50.832;4.080;2023-07-31T11:28:33;9.70;;;4.82;;
20283;SDS011;10301;50.832;4.080;2023-07-31T11:31:00;13.38;;;5.72;;
20283;SDS011;10301;50.832;4.080;2023-07-31T11:33:27;10.18;;;4.82;;
20283;SDS011;10301;50.832;4.080;2023-07-31T11:35:52;11.63;;;4.90;;
20283;SDS011;10301;50.832;4.080;2023-07-31T11:38:22;13.52;;;5.18;;
20283;SDS011;10301;50.832;4.080;2023-07-31T11:40:49;13.48;;;5.53;;
20283;SDS011;10301;50.832;4.080;2023-07-31T11:43:15;12.80;;;5.35;;
20283;SDS011;10301;50.832;4.080;2023-07-31T11:45:47;12.50;;;5.00;;
20283;SDS011;10301;50.832;4.080;2023-07-31T11:48:24;15.05;;;5.60;;
20283;SDS011;10301;50.832;4.080;2023-07-31T11:50:52;11.80;;;5.22;;
20283;SDS011;10301;50.832;4.080;2023-07-31T11:53:25;14.00;;;4.82;;
20283;SDS011;10301;50.832;4.080;2023-07-31T11:55:55;12.65;;;5.03;;
20283;SDS011;10301;50.832;4.080;2023-07-31T11:58:23;11.07;;;5.43;;
20283;SDS011;10301;50.832;4.080;2023-07-31T12:00:50;12.98;;;5.07;;
20283;SDS011;10301;50.832;4.080;2023-07-31T12:03:16;10.38;;;4.78;;
20283;SDS011;10301;50.832;4.080;2023-07-31T12:05:43;13.55;;;5.22;;
20283;SDS011;10301;50.832;4.080;2023-07-31T12:08:10;11.88;;;4.90;;
20283;SDS011;10301;50.832;4.080;2023-07-31T12:10:37;12.27;;;5.25;;
20283;SDS011;10301;50.832;4.080;2023-07-31T12:13:07;12.27;;;5.10;;
20283;SDS011;10301;50.832;4.080;2023-07-31T12:15:42;12.60;;;4.93;;
20283;SDS011;10301;50.832;4.080;2023-07-31T12:18:13;10.90;;;5.05;;
20283;SDS011;10301;50.832;4.080;2023-07-31T12:20:43;13.23;;;5.28;;
20283;SDS011;10301;50.832;4.080;2023-07-31T12:23:13;11.45;;;4.80;;
20283;SDS011;10301;50.832;4.080;2023-07-31T12:25:40;12.68;;;4.82;;
20283;SDS011;10301;50.832;4.080;2023-07-31T12:28:06;11.82;;;5.10;;
20283;SDS011;10301;50.832;4.080;2023-07-31T12:30:39;12.70;;;5.47;;
20283;SDS011;10301;50.832;4.080;2023-07-31T12:33:14;10.38;;;4.88;;
20283;SDS011;10301;50.832;4.080;2023-07-31T12:35:44;13.07;;;5.13;;
20283;SDS011;10301;50.832;4.080;2023-07-31T12:38:14;17.63;;;8.65;;
20283;SDS011;10301;50.832;4.080;2023-07-31T12:40:40;10.80;;;4.93;;
20283;SDS011;10301;50.832;4.080;2023-07-31T12:43:07;10.98;;;5.40;;
20283;SDS011;10301;50.832;4.080;2023-07-31T12:45:33;14.52;;;5.70;;
20283;SDS011;10301;50.832;4.080;2023-07-31T12:47:59;11.50;;;4.55;;
20283;SDS011;10301;50.832;4.080;2023-07-31T12:50:26;10.35;;;4.13;;
20283;SDS011;10301;50.832;4.080;2023-07-31T12:52:55;9.15;;;5.50;;
20283;SDS011;10301;50.832;4.080;2023-07-31T12:55:22;8.32;;;4.10;;
20283;SDS011;10301;50.832;4.080;2023-07-31T12:57:49;13.75;;;4.80;;
20283;SDS011;10301;50.832;4.080;2023-07-31T13:00:15;8.60;;;4.35;;
20283;SDS011;10301;50.832;4.080;2023-07-31T13:02:41;9.45;;;4.18;;
20283;SDS011;10301;50.832;4.080;2023-07-31T13:05:07;9.23;;;3.83;;
20283;SDS011;10301;50.832;4.080;2023-07-31T13:07:33;10.45;;;3.75;;
20283;SDS011;10301;50.832;4.080;2023-07-31T13:09:59;7.72;;;4.65;;
20283;SDS011;10301;50.832;4.080;2023-07-31T13:12:24;11.88;;;4.72;;
20283;SDS011;10301;50.832;4.080;2023-07-31T13:14:50;8.68;;;3.75;;
20283;SDS011;10301;50.832;4.080;2023-07-31T13:17:16;8.70;;;3.85;;
20283;SDS011;10301;50.832;4.080;2023-07-31T13:19:42;10.05;;;3.97;;
20283;SDS011;10301;50.832;4.080;2023-07-31T13:22:08;10.82;;;4.32;;
20283;SDS011;10301;50.832;4.080;2023-07-31T13:24:33;8.00;;;4.05;;
20283;SDS011;10301;50.832;4.080;2023-07-31T13:26:59;10.32;;;4.22;;
20283;SDS011;10301;50.832;4.080;2023-07-31T13:29:25;8.57;;;4.00;;
20283;SDS011;10301;50.832;4.080;2023-07-31T13:31:51;9.57;;;3.70;;
20283;SDS011;10301;50.832;4.080;2023-07-31T13:34:17;8.80;;;3.97;;
20283;SDS011;10301;50.832;4.080;2023-07-31T13:36:43;10.15;;;4.70;;
20283;SDS011;10301;50.832;4.080;2023-07-31T13:39:09;10.77;;;4.20;;
20283;SDS011;10301;50.832;4.080;2023-07-31T13:41:34;8.80;;;4.30;;
20283;SDS011;10301;50.832;4.080;2023-07-31T13:44:00;9.32;;;4.32;;
20283;SDS011;10301;50.832;4.080;2023-07-31T13:46:25;9.38;;;4.53;;
20283;SDS011;10301;50.832;4.080;2023-07-31T13:48:51;10.95;;;4.90;;
20283;SDS011;10301;50.832;4.080;2023-07-31T13:51:20;8.55;;;4.30;;
20283;SDS011;10301;50.832;4.080;2023-07-31T13:53:46;10.98;;;4.75;;
20283;SDS011;10301;50.832;4.080;2023-07-31T13:56:12;10.40;;;5.13;;
20283;SDS011;10301;50.832;4.080;2023-07-31T13:58:38;10.68;;;4.80;;
20283;SDS011;10301;50.832;4.080;2023-07-31T14:01:03;11.02;;;4.95;;
20283;SDS011;10301;50.832;4.080;2023-07-31T14:03:30;11.43;;;4.60;;
20283;SDS011;10301;50.832;4.080;2023-07-31T14:05:56;10.20;;;4.95;;
20283;SDS011;10301;50.832;4.080;2023-07-31T14:08:21;11.50;;;4.68;;
20283;SDS011;10301;50.832;4.080;2023-07-31T14:10:47;11.05;;;4.85;;
20283;SDS011;10301;50.832;4.080;2023-07-31T14:13:13;10.70;;;5.15;;
20283;SDS011;10301;50.832;4.080;2023-07-31T14:15:41;9.00;;;4.60;;
20283;SDS011;10301;50.832;4.080;2023-07-31T14:18:08;9.50;;;4.38;;
20283;SDS011;10301;50.832;4.080;2023-07-31T14:20:34;8.57;;;4.40;;
20283;SDS011;10301;50.832;4.080;2023-07-31T14:22:59;10.32;;;4.35;;
20283;SDS011;10301;50.832;4.080;2023-07-31T14:25:25;9.05;;;4.30;;
20283;SDS011;10301;50.832;4.080;2023-07-31T14:27:51;8.73;;;3.65;;
20283;SDS011;10301;50.832;4.080;2023-07-31T14:30:17;9.52;;;3.35;;
20283;SDS011;10301;50.832;4.080;2023-07-31T14:32:43;9.45;;;3.40;;
20283;SDS011;10301;50.832;4.080;2023-07-31T14:35:09;8.60;;;3.28;;
20283;SDS011;10301;50.832;4.080;2023-07-31T14:37:38;7.75;;;3.28;;
20283;SDS011;10301;50.832;4.080;2023-07-31T14:40:05;7.03;;;3.13;;
20283;SDS011;10301;50.832;4.080;2023-07-31T14:42:32;7.30;;;3.60;;
20283;SDS011;10301;50.832;4.080;2023-07-31T14:44:58;8.35;;;3.00;;